Circle Line Brooklyn — WDE8160 — position and weather

sailwx.info

Track history (hours):
 
Tides and Currents Weather Stations Pressure Air Temp Water Temp Dewpoint Dewpoint Depression Visibility Wind Speed Wind Dir Waves Ship Positions

Circle Line Brooklyn

Owner: Circle Line Sight Seeing Yachts Inc., New York, NY. More information available from US FCC via Universal Licensing System and Coast Guard Vessel Documentation Center.

Last reported at 2016-May-06 00:34 UTC. Time now 2016-May-06 01:45 UTC.
Position N 40°43' W 074°02'.

MMSI: 367402250.

Date/timePositionNaut miles runAvg speedWind from/ knotsBaromVisibWave heightAir tempDewpointWater temp
2016-May-06 00:34N 40°43' W 074°02'1 1.4
2016-May-05 23:33N 40°42' W 074°00'4 3.7
2016-May-05 22:33N 40°46' W 074°00'0 0.0
2016-May-05 21:33N 40°46' W 074°00'0 0.1
2016-May-05 20:34N 40°46' W 074°00'0 0.1
2016-May-05 19:21N 40°46' W 074°00'0 0.0
2016-May-05 18:31N 40°46' W 074°00'2 1.6
2016-May-05 17:09N 40°46' W 073°57'6 9.5
2016-May-05 16:33N 40°41' W 074°02'5 2.3
2016-May-05 14:30N 40°46' W 074°00'3 0.1
2016-May-03 15:34N 40°43' W 074°01'1 0.1
2016-May-03 00:33N 40°44' W 074°01'2 1.8
2016-May-02 23:33N 40°42' W 073°60'4 1.1
2016-May-02 20:21N 40°46' W 074°00'4 5.4
2016-May-02 19:34N 40°42' W 074°00'2 0.1
2016-May-02 00:33N 40°44' W 074°01'2 2.1
2016-May-01 23:33N 40°42' W 073°59'3 0.9
2016-May-01 19:27N 40°46' W 073°57'2 1.1
2016-May-01 17:17N 40°46' W 074°00'5 3.0
2016-May-01 15:33N 40°41' W 074°02'3 0.2
2016-May-01 03:33N 40°44' W 074°01'2 2.4
2016-May-01 02:33N 40°43' W 073°58'3 2.7
2016-May-01 01:33N 40°43' W 074°02'2 0.4
2016-Apr-30 20:33N 40°43' W 073°59'0 0.1
2016-Apr-30 17:33N 40°43' W 073°59'3 1.1
2016-Apr-30 14:34N 40°41' W 074°03'2 0.1
2016-Apr-30 00:33N 40°43' W 074°02'1 1.4
2016-Apr-29 23:33N 40°42' W 073°60'4 1.0
2016-Apr-29 19:32N 40°46' W 073°57'2 1.1
2016-Apr-29 17:28N 40°46' W 074°00'2 1.6
2016-Apr-29 16:04N 40°46' W 073°57'611.7
2016-Apr-29 15:33N 40°41' W 074°03'2 0.1
2016-Apr-29 00:33N 40°43' W 074°02'2 1.4
2016-Apr-28 23:29N 40°42' W 074°00'2 0.6
2016-Apr-28 19:25N 40°44' W 073°58'4 1.9
2016-Apr-28 17:33N 40°47' W 073°60'2 1.6
2016-Apr-28 16:06N 40°46' W 073°57'610.6
2016-Apr-28 15:33N 40°41' W 074°02'  
Track history (hours):
 
Tides and Currents Weather Stations Pressure Air Temp Water Temp Dewpoint Dewpoint Depression Visibility Wind Speed Wind Dir Waves Ship Positions

Circle Line Brooklyn

Owner: Circle Line Sight Seeing Yachts Inc., New York, NY. More information available from US FCC via Universal Licensing System and Coast Guard Vessel Documentation Center.

Last reported at 2016-May-06 00:34 UTC. Time now 2016-May-06 01:45 UTC.
Position N 40°43' W 074°02'.

MMSI: 367402250.

Date/timePositionNaut miles runAvg speedWind from/ knotsBaromVisibWave heightAir tempDewpointWater temp
2016-May-06 00:34N 40°43' W 074°02'1 1.4
2016-May-05 23:33N 40°42' W 074°00'4 3.7
2016-May-05 22:33N 40°46' W 074°00'0 0.0
2016-May-05 21:33N 40°46' W 074°00'0 0.1
2016-May-05 20:34N 40°46' W 074°00'0 0.1
2016-May-05 19:21N 40°46' W 074°00'0 0.0
2016-May-05 18:31N 40°46' W 074°00'2 1.6
2016-May-05 17:09N 40°46' W 073°57'6 9.5
2016-May-05 16:33N 40°41' W 074°02'5 2.3
2016-May-05 14:30N 40°46' W 074°00'3 0.1
2016-May-03 15:34N 40°43' W 074°01'1 0.1
2016-May-03 00:33N 40°44' W 074°01'2 1.8
2016-May-02 23:33N 40°42' W 073°60'4 1.1
2016-May-02 20:21N 40°46' W 074°00'4 5.4
2016-May-02 19:34N 40°42' W 074°00'2 0.1
2016-May-02 00:33N 40°44' W 074°01'2 2.1
2016-May-01 23:33N 40°42' W 073°59'3 0.9
2016-May-01 19:27N 40°46' W 073°57'2 1.1
2016-May-01 17:17N 40°46' W 074°00'5 3.0
2016-May-01 15:33N 40°41' W 074°02'3 0.2
2016-May-01 03:33N 40°44' W 074°01'2 2.4
2016-May-01 02:33N 40°43' W 073°58'3 2.7
2016-May-01 01:33N 40°43' W 074°02'2 0.4
2016-Apr-30 20:33N 40°43' W 073°59'0 0.1
2016-Apr-30 17:33N 40°43' W 073°59'3 1.1
2016-Apr-30 14:34N 40°41' W 074°03'2 0.1
2016-Apr-30 00:33N 40°43' W 074°02'1 1.4
2016-Apr-29 23:33N 40°42' W 073°60'4 1.0
2016-Apr-29 19:32N 40°46' W 073°57'2 1.1
2016-Apr-29 17:28N 40°46' W 074°00'2 1.6
2016-Apr-29 16:04N 40°46' W 073°57'611.7
2016-Apr-29 15:33N 40°41' W 074°03'2 0.1
2016-Apr-29 00:33N 40°43' W 074°02'2 1.4
2016-Apr-28 23:29N 40°42' W 074°00'2 0.6
2016-Apr-28 19:25N 40°44' W 073°58'4 1.9
2016-Apr-28 17:33N 40°47' W 073°60'2 1.6
2016-Apr-28 16:06N 40°46' W 073°57'610.6
2016-Apr-28 15:33N 40°41' W 074°02'  

Dump ship's entire track history